createdAt,value
2023-05-06T09:22:10.107Z,14.73
2023-05-06T09:24:37.344Z,17.77
2023-05-06T09:27:04.019Z,17.00
2023-05-06T09:29:30.503Z,13.55
2023-05-06T09:31:57.001Z,12.23
2023-05-06T09:34:24.712Z,14.98
2023-05-06T09:36:52.562Z,12.95
2023-05-06T09:39:19.062Z,15.27
2023-05-06T09:41:45.639Z,14.00
2023-05-06T09:44:12.229Z,13.90
2023-05-06T09:46:39.176Z,14.65
2023-05-06T09:49:06.116Z,10.48
2023-05-06T09:51:33.020Z,11.57
2023-05-06T09:54:01.101Z,13.07
2023-05-06T09:56:28.516Z,13.27
2023-05-06T09:58:55.953Z,12.23
2023-05-06T10:01:35.313Z,12.80
2023-05-06T10:04:06.948Z,15.18
2023-05-06T10:06:36.852Z,12.23
2023-05-06T10:09:03.978Z,11.43
2023-05-06T10:11:31.161Z,13.13
2023-05-06T10:14:00.272Z,11.00
2023-05-06T10:16:27.594Z,13.40
2023-05-06T10:18:56.081Z,14.68
2023-05-06T10:21:27.919Z,11.90
2023-05-06T10:24:00.705Z,12.90
2023-05-06T10:26:28.594Z,13.60
2023-05-06T10:28:55.135Z,12.57
2023-05-06T10:31:21.747Z,11.43
2023-05-06T10:33:51.951Z,9.73
2023-05-06T10:36:21.590Z,9.00
2023-05-06T10:39:00.701Z,11.85
2023-05-06T10:41:29.133Z,8.82
2023-05-06T10:44:00.196Z,13.98
2023-05-06T10:46:28.238Z,10.23
2023-05-06T10:49:04.435Z,8.77
2023-05-06T10:51:34.297Z,9.35
2023-05-06T10:54:05.610Z,14.02
2023-05-06T10:56:37.536Z,8.18
2023-05-06T10:59:09.564Z,7.28
2023-05-06T11:01:37.485Z,8.95
2023-05-06T11:04:15.658Z,7.65
2023-05-06T11:06:46.281Z,8.85
2023-05-06T11:09:19.597Z,7.75
2023-05-06T11:11:46.716Z,9.07
2023-05-06T11:14:14.139Z,5.93
2023-05-06T11:16:48.580Z,10.68
2023-05-06T11:19:23.688Z,6.10
2023-05-06T11:21:51.245Z,7.40
2023-05-06T11:24:26.195Z,6.78
2023-05-06T11:26:54.021Z,7.47
2023-05-06T11:29:21.039Z,7.45
2023-05-06T11:31:47.959Z,5.70
2023-05-06T11:34:21.882Z,7.65
2023-05-06T11:36:56.783Z,7.13
2023-05-06T11:39:23.386Z,5.38
2023-05-06T11:41:52.913Z,5.28
2023-05-06T11:44:27.099Z,6.10
2023-05-06T11:47:00.302Z,5.47
2023-05-06T11:49:27.563Z,6.75
2023-05-06T11:51:57.218Z,4.13
2023-05-06T11:54:26.164Z,7.10
2023-05-06T11:56:54.373Z,8.18
2023-05-06T11:59:34.506Z,6.80
2023-05-06T12:02:02.968Z,5.40
2023-05-06T12:04:38.114Z,12.05
2023-05-06T12:07:06.169Z,8.80
2023-05-06T12:09:34.391Z,8.18
2023-05-06T12:12:02.832Z,8.00
2023-05-06T12:14:29.691Z,6.68
2023-05-06T12:16:56.609Z,6.75
2023-05-06T12:19:23.166Z,7.57
2023-05-06T12:21:49.690Z,6.70
2023-05-06T12:24:27.018Z,6.88
2023-05-06T12:26:53.504Z,5.95
2023-05-06T12:29:20.007Z,6.68
2023-05-06T12:31:47.787Z,7.43
2023-05-06T12:34:16.270Z,7.45
2023-05-06T12:36:45.183Z,5.50
2023-05-06T12:39:12.332Z,4.97
2023-05-06T12:41:38.781Z,9.43
2023-05-06T12:44:34.198Z,6.60
2023-05-06T12:47:04.901Z,9.55
2023-05-06T12:49:48.448Z,8.55
2023-05-06T12:52:15.973Z,4.90
2023-05-06T12:54:42.500Z,6.78
2023-05-06T12:57:09.067Z,6.55
2023-05-06T12:59:36.448Z,6.75
2023-05-06T13:02:04.018Z,6.95
2023-05-06T13:04:31.409Z,5.45
2023-05-06T13:06:58.643Z,6.43
2023-05-06T13:09:25.957Z,5.85
2023-05-06T13:11:52.909Z,5.82
2023-05-06T13:14:19.365Z,5.05
2023-05-06T13:16:46.523Z,6.93
2023-05-06T13:19:28.638Z,6.38
2023-05-06T13:21:59.045Z,6.32
2023-05-06T13:24:25.671Z,6.22
2023-05-06T13:26:52.429Z,4.72
2023-05-06T13:29:19.127Z,5.85
2023-05-06T13:31:45.587Z,5.80
2023-05-06T13:34:12.842Z,5.72
2023-05-06T13:36:39.382Z,4.43
2023-05-06T13:39:05.994Z,3.38
2023-05-06T13:41:32.889Z,3.30
2023-05-06T13:43:59.506Z,3.38
2023-05-06T13:46:27.372Z,5.18
2023-05-06T13:48:53.963Z,4.45
2023-05-06T13:51:20.449Z,3.85
2023-05-06T13:53:46.928Z,4.53
2023-05-06T13:56:13.405Z,4.93
2023-05-06T13:58:39.882Z,4.47
2023-05-06T14:01:06.451Z,6.60
2023-05-06T14:03:33.059Z,4.90
2023-05-06T14:05:59.624Z,4.60
2023-05-06T14:08:26.102Z,3.83
2023-05-06T14:10:52.617Z,4.03
2023-05-06T14:13:19.191Z,4.22
2023-05-06T14:15:45.867Z,5.70
2023-05-06T14:18:12.440Z,3.45
2023-05-06T14:20:39.060Z,5.13
2023-05-06T14:23:06.977Z,5.45
2023-05-06T14:25:33.595Z,3.90
2023-05-06T14:28:00.289Z,5.63
2023-05-06T14:30:26.899Z,3.78
2023-05-06T14:32:53.455Z,3.45
2023-05-06T14:35:20.129Z,4.07
2023-05-06T14:37:46.691Z,2.97
2023-05-06T14:40:13.516Z,3.90
2023-05-06T14:42:40.022Z,8.32
2023-05-06T14:45:07.161Z,3.92
2023-05-06T14:47:33.687Z,2.85
2023-05-06T14:50:00.186Z,4.13
2023-05-06T14:52:26.988Z,3.40
2023-05-06T14:54:53.484Z,4.82
2023-05-06T14:57:20.010Z,4.43
2023-05-06T14:59:46.541Z,3.55
2023-05-06T15:02:12.999Z,5.30
2023-05-06T15:04:39.468Z,5.15
2023-05-06T15:07:05.920Z,6.05
2023-05-06T15:09:32.372Z,7.55
2023-05-06T15:11:58.924Z,7.70
2023-05-06T15:14:25.504Z,5.45
2023-05-06T15:16:56.778Z,5.35
2023-05-06T15:19:23.884Z,4.57
2023-05-06T15:21:50.604Z,5.32
2023-05-06T15:24:17.131Z,8.80
2023-05-06T15:26:43.692Z,6.10
2023-05-06T15:29:10.119Z,5.72
2023-05-06T15:31:39.398Z,5.85
2023-05-06T15:34:07.054Z,9.68
2023-05-06T15:36:33.716Z,8.35
2023-05-06T15:39:01.152Z,8.60
2023-05-06T15:41:30.467Z,8.45
2023-05-06T15:43:58.419Z,8.48
2023-05-06T15:46:26.231Z,7.28
2023-05-06T15:49:09.050Z,10.23
2023-05-06T15:51:39.589Z,6.47
2023-05-06T15:54:06.996Z,9.73
2023-05-06T15:56:39.391Z,5.07
2023-05-06T15:59:08.328Z,6.00
2023-05-06T16:02:08.376Z,7.53
2023-05-06T16:04:21.555Z,5.55
2023-05-06T16:06:48.305Z,7.88
2023-05-06T16:09:14.952Z,6.00
2023-05-06T16:11:41.536Z,3.60
2023-05-06T16:14:07.961Z,7.50
2023-05-06T16:16:34.626Z,3.95
2023-05-06T16:19:01.232Z,4.70
2023-05-06T16:21:28.646Z,8.13
2023-05-06T16:23:55.186Z,4.00
2023-05-06T16:26:21.955Z,6.55
2023-05-06T16:28:48.465Z,4.57
2023-05-06T16:31:15.009Z,4.75
2023-05-06T16:33:41.477Z,5.75
2023-05-06T16:36:08.398Z,5.47
2023-05-06T16:38:34.952Z,5.82
2023-05-06T16:41:01.693Z,8.15
2023-05-06T16:43:28.197Z,4.75
2023-05-06T16:45:54.655Z,4.97
2023-05-06T16:48:21.328Z,6.30
2023-05-06T16:50:47.849Z,5.22
2023-05-06T16:53:14.798Z,6.60
2023-05-06T16:55:46.678Z,4.90
2023-05-06T16:58:13.178Z,7.03
2023-05-06T17:00:39.934Z,8.23
2023-05-06T17:03:06.578Z,6.32
2023-05-06T17:05:33.335Z,6.68
2023-05-06T17:07:59.930Z,10.93
2023-05-06T17:10:29.361Z,6.68
2023-05-06T17:12:59.571Z,9.35
2023-05-06T17:15:26.191Z,8.73
2023-05-06T17:17:52.859Z,8.65
2023-05-06T17:20:22.928Z,12.30
2023-05-06T17:22:49.870Z,7.18
2023-05-06T17:25:16.486Z,9.82
2023-05-06T17:27:43.198Z,6.80
2023-05-06T17:30:09.937Z,9.25
2023-05-06T17:32:36.817Z,7.57
2023-05-06T17:35:03.720Z,6.90
2023-05-06T17:37:31.266Z,7.82
2023-05-06T17:39:57.932Z,13.30
2023-05-06T17:42:24.400Z,9.13
2023-05-06T17:44:51.138Z,13.43
2023-05-06T17:47:17.735Z,8.18
2023-05-06T17:49:44.324Z,8.88
2023-05-06T17:52:10.931Z,9.18
2023-05-06T17:54:38.256Z,10.55
2023-05-06T17:57:04.704Z,8.90
2023-05-06T17:59:31.293Z,7.68
2023-05-06T18:01:57.851Z,8.75
2023-05-06T18:04:24.458Z,9.38
2023-05-06T18:06:51.015Z,7.78
2023-05-06T18:09:17.545Z,9.27
2023-05-06T18:11:44.688Z,7.22
2023-05-06T18:14:11.552Z,9.73
2023-05-06T18:16:38.114Z,6.15
2023-05-06T18:19:05.242Z,6.25
2023-05-06T18:21:33.967Z,7.47
2023-05-06T18:24:10.297Z,5.18
2023-05-06T18:26:45.231Z,7.82
2023-05-06T18:29:12.627Z,5.78
2023-05-06T18:31:39.478Z,5.97
2023-05-06T18:34:06.137Z,5.72
2023-05-06T18:36:32.665Z,6.40
2023-05-06T18:38:59.135Z,4.47
2023-05-06T18:41:25.760Z,4.53
2023-05-06T18:43:52.403Z,5.97
2023-05-06T18:46:18.920Z,4.97
2023-05-06T18:48:45.485Z,6.35
2023-05-06T18:51:17.088Z,4.60
2023-05-06T18:53:44.557Z,5.07
2023-05-06T18:56:11.314Z,5.25
2023-05-06T18:58:39.519Z,5.38
2023-05-06T19:01:09.621Z,5.55
2023-05-06T19:03:37.494Z,4.70
2023-05-06T19:06:07.642Z,4.60
2023-05-06T19:08:34.110Z,4.03
2023-05-06T19:11:01.232Z,4.28
2023-05-06T19:13:28.245Z,4.50
2023-05-06T19:15:55.292Z,6.85
2023-05-06T19:18:21.845Z,3.70
2023-05-06T19:20:48.303Z,5.22
2023-05-06T19:23:14.780Z,5.68
2023-05-06T19:25:41.303Z,5.55
2023-05-06T19:28:07.976Z,3.35
2023-05-06T19:30:35.352Z,4.80
2023-05-06T19:33:02.409Z,3.22
2023-05-06T19:35:29.117Z,4.93
2023-05-06T19:37:56.163Z,3.75
2023-05-06T19:40:22.811Z,3.25
2023-05-06T19:42:49.332Z,3.22
2023-05-06T19:45:17.464Z,4.70
2023-05-06T19:47:44.738Z,3.17
2023-05-06T19:50:11.952Z,4.03
2023-05-06T19:52:38.703Z,3.08
2023-05-06T19:55:05.742Z,3.90
2023-05-06T19:57:33.673Z,4.03
2023-05-06T20:00:00.400Z,3.42
2023-05-06T20:02:26.921Z,3.15
2023-05-06T20:04:53.421Z,4.93
2023-05-06T20:07:21.054Z,3.38
2023-05-06T20:09:48.196Z,3.70
2023-05-06T20:12:14.611Z,4.15
2023-05-06T20:14:41.608Z,4.53
2023-05-06T20:17:08.382Z,4.57
2023-05-06T20:19:34.865Z,3.08
2023-05-06T20:22:01.666Z,5.28
2023-05-06T20:24:29.482Z,2.80
2023-05-06T20:26:57.915Z,3.85
2023-05-06T20:29:24.706Z,2.38
2023-05-06T20:31:51.286Z,3.30
2023-05-06T20:34:18.982Z,4.25
2023-05-06T20:36:46.678Z,4.90
2023-05-06T20:39:13.169Z,3.67
2023-05-06T20:41:39.626Z,4.60
2023-05-06T20:44:06.240Z,4.38
2023-05-06T20:46:33.089Z,3.13
2023-05-06T20:49:00.632Z,5.30
2023-05-06T20:51:27.842Z,2.85
2023-05-06T20:53:58.997Z,3.95
